• Join FlightAware (Why Join?)
  • Login
  • US Flag 
07:43AM EST


 

Airport Tracker/Info


-or-


 

Live Flight TrackerFlight Track Log ✈ EJA396 ✈ 16-Jun-2013 ✈ KPWK - KMKG

Flight Track Log - Related Links

Times and Time Zones

All times are in EDT time to prevent confusion due to time zone crossing. See the EJA396 flight status page for this flight to view local times or setup timezone preferences in your user account.

Time Position Orientation Groundspeed Altitude Reporting Facility
EDT Latitude Longitude Course Direction KTS MPH feet Rate Location/Type
10:52AM 42.2500 -87.9500 352° North 276 318 6,700  Level Chicago TRACON
10:53AM 42.2775 -87.9497 360° North 273 314 8,500 3,240 Climbing Chicago Center
10:54AM 42.3644 -87.8953 25° Northeast 312 359 12,000 1,680 Climbing Chicago Center
10:55AM 42.4586 -87.8381 24° Northeast 365 420 12,000  Level Chicago Center
10:56AM 42.5522 -87.7797 25° Northeast 370 426 12,000  Level Chicago Center
10:57AM 42.6467 -87.7258 23° Northeast 369 425 12,000  Level Chicago Center
10:58AM 42.7372 -87.6181 41° Northeast 383 441 12,000  Level Chicago Center
10:59AM 42.7806 -87.4803 67° East 396 456 12,000  Level Chicago Center
11:00AM 42.8222 -87.3500 66° East 397 457 12,000 -720 Level Chicago Center
11:01AM 42.8656 -87.2147 66° East 392 451 10,600 -1,020 Descending Chicago Center
11:02AM 42.9064 -87.0847 67° East 377 434 10,000 -300 Descending Chicago Center
11:03AM 42.9481 -86.9544 66° East 377 434 10,000 -420 Level Chicago Center
11:04AM 43.0003 -86.8161 63° Northeast 342 394 9,200 -1,020 Descending Chicago Center
11:05AM 43.0381 -86.7206 62° Northeast 293 337 8,000 -1,440 Descending Chicago Center
11:06AM 43.0761 -86.6283 61° Northeast 282 325 6,300 -1,620 Descending Chicago Center
11:07AM 43.1147 -86.5375 60° Northeast 277 319 4,800 -1,140 Descending Chicago Center
11:08AM 43.1553 -86.4450 59° Northeast 277 319 4,000 -420 Descending Chicago Center
11:09AM 43.1914 -86.3561 61° Northeast 273 314 4,000  Level Chicago Center
11:10AM 43.2281 -86.2647 61° Northeast 273 314 4,000 -600 Level Chicago Center
11:11AM 43.2697 -86.1650 60° Northeast 260 299 2,800 -660 Descending Chicago Center
11:12AM 43.2989 -86.0964 60° Northeast 230 265 2,700 -60 Descending Chicago Center
11:13AM 43.2792 -86.0494 120° Southeast 189 217 2,700  Level Chicago Center
11:14AM 43.2467 -86.0706 205° Southwest 151 174 2,700  Level Chicago Center
11:15AM 43.2306 -86.1106 241° Southwest 131 151 2,700 -300 Level Chicago Center
11:17AM 43.2125 -86.1469 236° Southwest 121 139 2,100 -600 Descending Chicago Center
11:18AM 43.1950 -86.1842 237° Southwest 118 136 1,500 -660 Descending Chicago Center
11:19AM 43.1731 -86.2303 237° Southwest 120 138 800 -720 Descending Chicago Center